createdAt,value
2022-08-09T00:00:05.808Z,102435.41
2022-08-09T00:04:34.410Z,102423.19
2022-08-09T00:08:49.935Z,102430.50
2022-08-09T00:13:03.539Z,102431.91
2022-08-09T00:18:09.363Z,102425.28
2022-08-09T00:21:56.723Z,102434.25
2022-08-09T00:26:10.859Z,102433.50
2022-08-09T00:30:26.043Z,102429.47
2022-08-09T00:34:38.603Z,102433.09
2022-08-09T00:38:50.560Z,102433.78
2022-08-09T00:44:19.389Z,102432.94
2022-08-09T00:47:39.629Z,102437.19
2022-08-09T00:51:56.124Z,102438.06
2022-08-09T00:56:09.762Z,102445.22
2022-08-09T01:00:23.665Z,102444.72
2022-08-09T01:04:58.051Z,102445.78
2022-08-09T01:09:58.140Z,102447.88
2022-08-09T01:14:17.518Z,102452.56
2022-08-09T01:18:32.445Z,102446.16
2022-08-09T01:22:54.746Z,102454.38
2022-08-09T01:27:08.736Z,102455.25
2022-08-09T01:32:31.153Z,102458.91
2022-08-09T01:36:04.564Z,102450.81
2022-08-09T01:40:23.256Z,102442.88
2022-08-09T01:44:42.214Z,102450.28
2022-08-09T01:49:09.537Z,102443.63
2022-08-09T01:53:23.861Z,102442.41
2022-08-09T01:57:45.792Z,102446.84
2022-08-09T02:02:01.043Z,102440.81
2022-08-09T02:06:14.994Z,102448.34
2022-08-09T02:10:31.044Z,102444.41
2022-08-09T02:14:45.261Z,102450.72
2022-08-09T02:18:59.293Z,102441.13
2022-08-09T02:23:31.882Z,102448.88
2022-08-09T02:28:09.668Z,102450.75
2022-08-09T02:32:24.998Z,102452.25
2022-08-09T02:36:44.178Z,102440.38
2022-08-09T02:41:02.467Z,102446.03
2022-08-09T02:45:17.914Z,102439.00
2022-08-09T02:49:38.677Z,102430.03
2022-08-09T02:54:01.462Z,102430.91
2022-08-09T02:58:36.876Z,102433.22
2022-08-09T03:03:00.458Z,102430.97
2022-08-09T03:07:14.652Z,102435.56
2022-08-09T03:12:06.287Z,102427.47
2022-08-09T03:16:06.746Z,102426.03
2022-08-09T03:20:19.845Z,102434.59
2022-08-09T03:24:51.744Z,102436.69
2022-08-09T03:29:13.581Z,102433.00
2022-08-09T03:33:54.588Z,102429.88
2022-08-09T03:38:06.797Z,102439.91
2022-08-09T03:42:28.850Z,102442.25
2022-08-09T03:46:40.735Z,102438.09
2022-08-09T03:50:54.550Z,102444.56
2022-08-09T03:55:10.587Z,102438.13
2022-08-09T03:59:27.462Z,102436.66
2022-08-09T04:04:02.190Z,102452.72
2022-08-09T04:08:16.368Z,102446.25
2022-08-09T04:12:44.551Z,102451.31
2022-08-09T04:16:57.411Z,102447.97
2022-08-09T04:21:10.627Z,102456.72
2022-08-09T04:25:24.348Z,102447.97
2022-08-09T04:29:37.169Z,102460.47
2022-08-09T04:33:56.762Z,102462.56
2022-08-09T04:38:11.495Z,102466.94
2022-08-09T04:42:23.567Z,102471.75
2022-08-09T04:46:57.078Z,102475.25
2022-08-09T04:51:08.914Z,102473.78
2022-08-09T04:55:21.286Z,102478.56
2022-08-09T04:59:34.749Z,102480.41
2022-08-09T05:03:46.383Z,102485.75
2022-08-09T05:08:00.030Z,102489.31
2022-08-09T05:12:12.449Z,102488.56
2022-08-09T05:16:31.730Z,102490.34
2022-08-09T05:20:43.754Z,102492.38
2022-08-09T05:24:57.218Z,102498.97
2022-08-09T05:29:24.454Z,102504.69
2022-08-09T05:33:43.266Z,102505.31
2022-08-09T05:37:55.902Z,102502.94
2022-08-09T05:42:07.809Z,102512.28
2022-08-09T05:46:20.486Z,102515.53
2022-08-09T05:50:44.081Z,102515.34
2022-08-09T05:55:07.177Z,102517.19
2022-08-09T05:59:21.854Z,102518.34
2022-08-09T06:03:34.783Z,102519.59
2022-08-09T06:08:07.811Z,102515.19
2022-08-09T06:12:20.689Z,102524.34
2022-08-09T06:16:32.783Z,102519.38
2022-08-09T06:20:54.228Z,102540.16
2022-08-09T06:25:08.669Z,102530.25
2022-08-09T06:29:26.994Z,102530.34
2022-08-09T06:33:41.520Z,102532.81
2022-08-09T06:38:05.431Z,102541.47
2022-08-09T06:42:20.249Z,102537.25
2022-08-09T06:46:39.871Z,102530.78
2022-08-09T06:50:53.446Z,102531.13
2022-08-09T06:55:10.267Z,102542.63
2022-08-09T07:00:50.099Z,102548.16
2022-08-09T07:04:03.744Z,102544.69
2022-08-09T07:08:16.409Z,102539.00
2022-08-09T07:12:38.469Z,102555.25
2022-08-09T07:16:57.660Z,102552.13
2022-08-09T07:21:10.337Z,102556.88
2022-08-09T07:25:22.875Z,102552.50
2022-08-09T07:29:38.147Z,102552.97
2022-08-09T07:33:55.917Z,102550.94
2022-08-09T07:38:07.633Z,102554.31
2022-08-09T07:42:20.132Z,102554.81
2022-08-09T07:46:44.374Z,102556.44
2022-08-09T07:51:08.992Z,102555.78
2022-08-09T07:55:41.351Z,102552.66
2022-08-09T08:00:08.978Z,102546.50
2022-08-09T08:04:32.017Z,102549.13
2022-08-09T08:09:03.529Z,102550.78
2022-08-09T08:13:16.191Z,102547.03
2022-08-09T08:17:52.260Z,102549.44
2022-08-09T08:21:59.572Z,102544.59
2022-08-09T08:26:13.233Z,102559.59
2022-08-09T08:30:26.586Z,102547.13
2022-08-09T08:34:40.534Z,102552.03
2022-08-09T08:38:53.053Z,102561.22
2022-08-09T08:43:13.575Z,102554.22
2022-08-09T08:47:29.897Z,102563.28
2022-08-09T08:52:01.725Z,102568.00
2022-08-09T08:56:27.215Z,102574.13
2022-08-09T09:00:42.827Z,102564.22
2022-08-09T09:05:06.084Z,102570.03
2022-08-09T09:09:58.171Z,102568.84
2022-08-09T09:14:00.469Z,102567.63
2022-08-09T09:18:16.290Z,102573.44
2022-08-09T09:22:29.462Z,102571.47
2022-08-09T09:26:43.656Z,102561.81
2022-08-09T09:30:57.883Z,102570.75
2022-08-09T09:35:15.764Z,102555.78
2022-08-09T09:39:50.412Z,102565.94
2022-08-09T09:44:11.400Z,102555.22
2022-08-09T09:48:24.677Z,102572.47
2022-08-09T09:52:53.772Z,102564.25
2022-08-09T09:58:02.471Z,102572.19
2022-08-09T10:01:47.342Z,102567.41
2022-08-09T10:06:04.033Z,102560.06
2022-08-09T10:10:31.590Z,102559.97
2022-08-09T10:14:48.274Z,102563.28
2022-08-09T10:19:05.838Z,102557.53
2022-08-09T10:23:21.138Z,102554.53
2022-08-09T10:27:34.616Z,102555.94
2022-08-09T10:36:22.327Z,102548.56
2022-08-09T10:40:40.508Z,102541.66
2022-08-09T10:45:04.372Z,102537.94
2022-08-09T10:49:42.321Z,102533.78
2022-08-09T10:54:12.498Z,102537.13
2022-08-09T10:58:33.736Z,102537.31
2022-08-09T11:03:15.935Z,102524.63
2022-08-09T11:07:18.347Z,102524.63
2022-08-09T11:11:55.326Z,102526.22
2022-08-09T11:16:35.239Z,102522.44
2022-08-09T11:20:49.701Z,102538.63
2022-08-09T11:25:08.822Z,102527.38
2022-08-09T11:30:05.199Z,102519.03
2022-08-09T11:34:42.765Z,102506.94
2022-08-09T11:39:03.024Z,102507.25
2022-08-09T11:43:16.665Z,102496.66
2022-08-09T11:47:46.080Z,102482.00
2022-08-09T11:52:53.779Z,102488.16
2022-08-09T11:56:42.484Z,102494.41
2022-08-09T12:01:15.427Z,102492.22
2022-08-09T12:05:42.284Z,102498.03
2022-08-09T12:10:02.517Z,102494.63
2022-08-09T12:14:28.597Z,102477.88
2022-08-09T12:18:54.166Z,102485.91
2022-08-09T12:23:05.989Z,102486.84
2022-08-09T12:29:13.737Z,102476.78
2022-08-09T12:32:05.918Z,102462.13
2022-08-09T12:36:31.122Z,102458.75
2022-08-09T12:40:46.236Z,102448.53
2022-08-09T12:44:59.370Z,102461.97
2022-08-09T12:49:12.219Z,102444.56
2022-08-09T12:53:37.230Z,102443.56
2022-08-09T12:57:50.234Z,102458.69
2022-08-09T13:02:09.496Z,102453.28
2022-08-09T13:06:34.355Z,102446.22
2022-08-09T13:10:52.432Z,102447.38
2022-08-09T13:15:08.954Z,102442.31
2022-08-09T13:20:06.898Z,102437.69
2022-08-09T13:24:42.563Z,102434.38
2022-08-09T13:28:42.135Z,102430.59
2022-08-09T13:32:55.702Z,102421.63
2022-08-09T13:37:08.177Z,102424.56
2022-08-09T13:41:59.441Z,102414.09
2022-08-09T13:46:07.856Z,102413.09
2022-08-09T13:50:31.087Z,102393.91
2022-08-09T13:54:58.894Z,102401.59
2022-08-09T13:59:11.995Z,102394.91
2022-08-09T14:04:02.177Z,102399.97
2022-08-09T14:08:01.372Z,102394.06
2022-08-09T14:12:15.430Z,102402.09
2022-08-09T14:16:29.052Z,102397.50
2022-08-09T14:20:41.016Z,102398.00
2022-08-09T14:24:54.037Z,102400.81
2022-08-09T14:29:25.400Z,102390.75
2022-08-09T14:33:40.442Z,102385.97
2022-08-09T14:38:02.404Z,102389.63
2022-08-09T14:42:28.998Z,102398.69
2022-08-09T14:47:04.798Z,102398.69
2022-08-09T14:51:21.421Z,102388.75
2022-08-09T14:55:36.382Z,102391.81
2022-08-09T14:59:48.998Z,102386.41
2022-08-09T15:04:00.953Z,102387.59
2022-08-09T15:08:13.233Z,102382.63
2022-08-09T15:12:28.105Z,102377.91
2022-08-09T15:16:39.784Z,102385.28
2022-08-09T15:21:58.053Z,102370.72
2022-08-09T15:25:39.263Z,102375.84
2022-08-09T15:30:55.476Z,102372.41
2022-08-09T15:34:32.958Z,102362.84
2022-08-09T15:38:49.386Z,102360.00
2022-08-09T15:43:01.909Z,102374.78
2022-08-09T15:47:22.534Z,102360.22
2022-08-09T15:52:04.085Z,102364.41
2022-08-09T15:56:29.319Z,102358.88
2022-08-09T16:00:39.560Z,102357.97
2022-08-09T16:04:52.669Z,102348.81
2022-08-09T16:09:05.882Z,102355.19
2022-08-09T16:13:21.217Z,102342.94
2022-08-09T16:17:50.570Z,102338.38
2022-08-09T16:22:02.461Z,102347.34
2022-08-09T16:26:20.185Z,102338.22
2022-08-09T16:30:59.105Z,102345.69
2022-08-09T16:35:11.372Z,102343.63
2022-08-09T16:39:31.187Z,102345.66
2022-08-09T16:44:00.436Z,102337.81
2022-08-09T16:48:38.344Z,102333.81
2022-08-09T16:52:45.626Z,102334.25
2022-08-09T16:57:01.753Z,102329.38
2022-08-09T17:01:13.427Z,102346.53
2022-08-09T17:05:25.310Z,102336.16
2022-08-09T17:10:01.804Z,102336.56
2022-08-09T17:14:26.430Z,102344.31
2022-08-09T17:18:39.987Z,102350.38
2022-08-09T17:22:58.879Z,102355.47
2022-08-09T17:27:15.394Z,102349.81
2022-08-09T17:31:29.779Z,102356.81
2022-08-09T17:35:43.781Z,102366.28
2022-08-09T17:39:58.868Z,102353.19
2022-08-09T17:44:42.335Z,102356.56
2022-08-09T17:48:52.612Z,102364.38
2022-08-09T17:53:19.822Z,102371.06
2022-08-09T17:58:03.837Z,102357.13
2022-08-09T18:02:12.847Z,102368.31
2022-08-09T18:06:32.942Z,102375.25
2022-08-09T18:10:45.945Z,102371.22
2022-08-09T18:15:07.440Z,102376.00
2022-08-09T18:20:56.439Z,102373.06
2022-08-09T18:24:11.082Z,102371.19
2022-08-09T18:30:40.356Z,102373.97
2022-08-09T18:32:59.311Z,102366.34
2022-08-09T18:37:48.020Z,102369.75
2022-08-09T18:41:52.587Z,102370.34
2022-08-09T18:46:50.727Z,102362.19
2022-08-09T18:50:39.947Z,102382.59
2022-08-09T18:54:55.184Z,102372.53
2022-08-09T18:59:09.258Z,102377.53
2022-08-09T19:03:21.396Z,102376.75
2022-08-09T19:07:33.407Z,102380.13
2022-08-09T19:11:47.318Z,102385.66
2022-08-09T19:15:58.972Z,102380.22
2022-08-09T19:20:25.063Z,102389.03
2022-08-09T19:25:08.964Z,102397.63
2022-08-09T19:29:18.433Z,102396.25
2022-08-09T19:33:32.630Z,102403.16
2022-08-09T19:37:54.232Z,102398.25
2022-08-09T19:42:06.682Z,102409.25
2022-08-09T19:46:34.152Z,102411.44
2022-08-09T19:50:54.414Z,102414.97
2022-08-09T19:55:07.107Z,102399.31
2022-08-09T19:59:39.726Z,102400.94
2022-08-09T20:04:12.330Z,102402.59
2022-08-09T20:08:35.439Z,102401.44
2022-08-09T20:12:49.715Z,102392.91
2022-08-09T20:17:03.758Z,102417.88
2022-08-09T20:21:16.849Z,102402.41
2022-08-09T20:25:49.498Z,102391.69
2022-08-09T20:30:04.583Z,102393.84
2022-08-09T20:34:16.766Z,102399.53
2022-08-09T20:38:46.620Z,102403.06
2022-08-09T20:43:18.383Z,102421.09
2022-08-09T20:47:48.533Z,102413.91
2022-08-09T20:52:02.903Z,102426.97
2022-08-09T20:56:20.459Z,102426.59
2022-08-09T21:00:33.407Z,102416.09
2022-08-09T21:05:54.685Z,102427.53
2022-08-09T21:09:38.142Z,102426.09
2022-08-09T21:13:59.051Z,102431.47
2022-08-09T21:18:24.810Z,102425.34
2022-08-09T21:22:46.806Z,102427.97
2022-08-09T21:27:01.013Z,102434.41
2022-08-09T21:31:48.440Z,102428.59
2022-08-09T21:36:01.109Z,102432.91
2022-08-09T21:40:22.011Z,102425.09
2022-08-09T21:44:48.314Z,102432.41
2022-08-09T21:48:59.960Z,102419.63
2022-08-09T21:53:15.567Z,102438.91
2022-08-09T21:57:59.572Z,102431.69
2022-08-09T22:02:09.045Z,102431.78
2022-08-09T22:06:31.111Z,102428.97
2022-08-09T22:11:50.355Z,102433.72
2022-08-09T22:15:16.978Z,102425.22
2022-08-09T22:19:58.922Z,102428.34
2022-08-09T22:24:02.002Z,102432.34
2022-08-09T22:28:13.896Z,102431.59
2022-08-09T22:32:41.452Z,102437.25
2022-08-09T22:36:55.154Z,102437.38
2022-08-09T22:41:06.832Z,102429.13
2022-08-09T22:48:15.519Z,102428.66
2022-08-09T22:49:52.001Z,102431.56
2022-08-09T22:54:04.033Z,102430.78
2022-08-09T22:58:31.028Z,102442.44
2022-08-09T23:02:45.142Z,102420.19
2022-08-09T23:07:18.249Z,102424.47
2022-08-09T23:11:49.913Z,102422.25
2022-08-09T23:16:03.876Z,102428.75
2022-08-09T23:20:15.625Z,102430.34
2022-08-09T23:24:27.279Z,102434.38
2022-08-09T23:28:38.889Z,102437.84
2022-08-09T23:32:50.475Z,102438.22
2022-08-09T23:37:02.302Z,102438.22
2022-08-09T23:41:27.880Z,102432.31
2022-08-09T23:45:41.071Z,102433.03
2022-08-09T23:49:52.760Z,102425.03
2022-08-09T23:54:04.558Z,102434.75
2022-08-09T23:58:27.706Z,102424.34
